SBPA/POA METAR and TAF weather

Enter ICAO airport designator
Station Type Date Time Source
SBPA METAR 2021/05/07 01:00 UTC NOAA

SBPA 070100Z 27006KT 9999 FEW040 BKN060 14/11 Q1023


Station Type Date Time Source
SBPA Decoded METAR 2021/05/07 01:00 UTC NOAA

Porto Alegre Aero-Porto , Brazil (SBPA) 30-00S 051-11W 3M
May 06, 2021 - 09:00 PM EDT / 2021.05.07 0100 UTC
Wind: from the W (270 degrees) at 7 MPH (6 KT):0
Visibility: greater than 7 mile(s):0
Sky conditions: mostly cloudy
Temperature: 57 F (14 C)
Dew Point: 51 F (11 C)
Relative Humidity: 82%
Pressure (altimeter): 30.21 in. Hg (1023 hPa)
ob: SBPA 070100Z 27006KT 9999 FEW040 BKN060 14/11 Q1023
cycle: 1

Station Type Date Time Source
SBPA TAF 2021/05/07 00:00 UTC NOAA

TAF SBPA 062100Z 0700/0724 22008KT 9999 BKN020 TN11/0707Z TX18/0717Z
BECMG 0704/0706 28005KT SCT005 PROB40 0708/0711 1500 BR BCFG
BECMG 0712/0713 9999 SCT025
BECMG 0715/0717 16006KT
RMK PEP

Example: see airport list